createdAt,value
2023-09-12T00:04:25.083Z,99987.97
2023-09-12T00:09:28.945Z,99990.00
2023-09-12T00:14:31.732Z,99984.88
2023-09-12T00:19:36.247Z,99996.72
2023-09-12T00:24:40.071Z,100000.59
2023-09-12T00:29:43.012Z,100000.91
2023-09-12T00:34:47.508Z,99995.66
2023-09-12T00:39:50.303Z,99994.09
2023-09-12T00:44:53.558Z,99994.44
2023-09-12T00:49:57.852Z,100002.69
2023-09-12T00:55:00.679Z,100001.47
2023-09-12T01:00:05.466Z,99986.41
2023-09-12T01:05:09.905Z,99993.84
2023-09-12T01:10:12.673Z,99998.53
2023-09-12T01:15:15.615Z,99991.44
2023-09-12T01:20:23.788Z,99992.75
2023-09-12T01:25:44.641Z,99987.69
2023-09-12T01:30:48.858Z,99989.53
2023-09-12T01:35:51.671Z,99990.50
2023-09-12T01:40:54.913Z,99996.22
2023-09-12T01:46:00.203Z,99986.59
2023-09-12T01:51:03.685Z,99987.00
2023-09-12T01:56:06.688Z,99991.72
2023-09-12T02:01:10.993Z,99990.88
2023-09-12T02:06:13.825Z,99984.97
2023-09-12T02:11:17.042Z,99986.81
2023-09-12T02:16:21.262Z,99984.28
2023-09-12T02:21:24.155Z,99983.38
2023-09-12T02:26:26.977Z,99982.53
2023-09-12T02:31:31.288Z,99982.69
2023-09-12T02:36:34.169Z,99982.88
2023-09-12T02:41:37.002Z,99974.59
2023-09-12T02:46:41.295Z,99976.44
2023-09-12T02:51:44.209Z,99975.06
2023-09-12T02:56:47.100Z,99971.53
2023-09-12T03:01:51.352Z,99967.25
2023-09-12T03:06:54.122Z,99973.66
2023-09-12T03:11:57.029Z,99973.66
2023-09-12T03:17:01.878Z,99964.03
2023-09-12T03:22:05.557Z,99973.16
2023-09-12T03:27:09.156Z,99962.50
2023-09-12T03:32:13.575Z,99967.91
2023-09-12T03:37:16.386Z,99965.22
2023-09-12T03:42:19.398Z,99977.28
2023-09-12T03:47:23.699Z,99980.16
2023-09-12T03:52:26.604Z,99975.91
2023-09-12T03:57:29.777Z,99972.53
2023-09-12T04:02:34.413Z,99980.78
2023-09-12T04:07:37.280Z,99980.78
2023-09-12T04:12:40.313Z,99976.69
2023-09-12T04:17:44.558Z,99970.59
2023-09-12T04:22:47.345Z,99959.94
2023-09-12T04:27:50.347Z,99955.56
2023-09-12T04:32:54.689Z,99952.00
2023-09-12T04:37:57.643Z,99955.84
2023-09-12T04:43:00.666Z,99965.78
2023-09-12T04:48:05.858Z,99955.31
2023-09-12T04:53:08.796Z,99958.00
2023-09-12T04:58:11.778Z,99955.47
2023-09-12T05:03:16.815Z,99964.41
2023-09-12T05:08:19.944Z,99973.34
2023-09-12T05:13:22.797Z,99984.16
2023-09-12T05:18:27.465Z,99987.53
2023-09-12T05:23:30.453Z,99989.41
2023-09-12T05:28:33.815Z,99995.63
2023-09-12T05:33:38.380Z,100006.28
2023-09-12T05:38:41.762Z,100006.97
2023-09-12T05:43:45.636Z,100022.31
2023-09-12T05:48:50.097Z,100020.41
2023-09-12T05:53:53.581Z,100029.22
2023-09-12T05:58:56.627Z,100033.19
2023-09-12T06:04:01.382Z,100035.31
2023-09-12T06:09:04.884Z,100036.72
2023-09-12T06:14:08.862Z,100031.78
2023-09-12T06:19:13.026Z,100028.25
2023-09-12T06:24:16.769Z,100029.59
2023-09-12T06:29:19.641Z,100031.25
2023-09-12T06:34:23.828Z,100029.19
2023-09-12T06:39:26.705Z,100033.69
2023-09-12T06:44:29.604Z,100036.66
2023-09-12T06:49:35.783Z,100044.00
2023-09-12T06:54:38.818Z,100048.97
2023-09-12T06:59:41.603Z,100051.94
2023-09-12T07:04:45.805Z,100062.28
2023-09-12T07:09:48.645Z,100060.97
2023-09-12T07:14:53.020Z,100054.28
2023-09-12T07:19:57.253Z,100052.97
2023-09-12T07:25:02.011Z,100062.47
2023-09-12T07:30:05.949Z,100050.34
2023-09-12T07:35:10.392Z,100046.38
2023-09-12T07:40:13.709Z,100046.75
2023-09-12T07:45:16.541Z,100041.75
2023-09-12T07:50:20.846Z,100046.84
2023-09-12T07:55:23.768Z,100033.84
2023-09-12T08:00:26.702Z,100045.22
2023-09-12T08:05:30.891Z,100042.19
2023-09-12T08:10:33.727Z,100036.47
2023-09-12T08:15:36.614Z,100033.38
2023-09-12T08:20:41.446Z,100048.41
2023-09-12T08:25:44.241Z,100056.06
2023-09-12T08:30:47.491Z,100057.59
2023-09-12T08:35:52.679Z,100056.16
2023-09-12T08:40:55.496Z,100048.56
2023-09-12T08:45:58.413Z,100045.38
2023-09-12T08:51:02.813Z,100040.69
2023-09-12T08:56:06.211Z,100037.34
2023-09-12T09:01:11.634Z,100047.88
2023-09-12T09:06:15.905Z,100053.63
2023-09-12T09:11:18.890Z,100049.63
2023-09-12T09:16:22.402Z,100049.63
2023-09-12T09:21:27.762Z,100054.03
2023-09-12T09:26:43.715Z,100051.47
2023-09-12T09:31:47.706Z,100055.16
2023-09-12T09:36:53.178Z,100059.88
2023-09-12T09:41:56.958Z,100060.56
2023-09-12T09:47:03.468Z,100052.84
2023-09-12T09:52:08.933Z,100058.34
2023-09-12T09:57:11.710Z,100059.19
2023-09-12T10:02:17.635Z,100056.53
2023-09-12T10:07:21.957Z,100046.28
2023-09-12T10:12:25.190Z,100054.06
2023-09-12T10:17:31.600Z,100048.66
2023-09-12T10:22:39.433Z,100036.81
2023-09-12T10:27:42.429Z,100035.69
2023-09-12T10:32:47.088Z,100022.50
2023-09-12T10:37:51.311Z,100024.75
2023-09-12T10:42:54.271Z,100020.53
2023-09-12T10:47:57.672Z,100011.41
2023-09-12T10:53:12.552Z,100009.28
2023-09-12T10:58:15.555Z,100010.31
2023-09-12T11:03:37.868Z,100015.59
2023-09-12T11:08:42.324Z,100004.09
2023-09-12T11:13:46.828Z,99997.41
2023-09-12T11:19:14.858Z,100000.13
2023-09-12T11:24:19.545Z,99988.84
2023-09-12T11:29:22.508Z,99997.28
2023-09-12T11:34:27.185Z,99996.63
2023-09-12T11:39:32.716Z,100002.25
2023-09-12T11:44:35.561Z,99990.91
2023-09-12T11:49:39.043Z,99999.59
2023-09-12T11:54:43.327Z,99991.84
2023-09-12T11:59:48.101Z,99989.28
2023-09-12T12:04:51.477Z,99994.56
2023-09-12T12:09:55.743Z,99996.72
2023-09-12T12:14:58.665Z,99996.25
2023-09-12T12:20:01.693Z,99989.47
2023-09-12T12:25:09.437Z,99996.06
2023-09-12T12:30:13.461Z,99990.47
2023-09-12T12:35:51.290Z,99987.06
2023-09-12T12:40:47.611Z,99988.16
2023-09-12T12:45:55.505Z,99986.28
2023-09-12T12:50:58.756Z,99985.56
2023-09-12T12:56:03.478Z,99980.69
2023-09-12T13:01:06.727Z,99966.19
2023-09-12T13:06:14.312Z,99970.28
2023-09-12T13:11:19.013Z,99967.78
2023-09-12T13:16:21.933Z,99961.31
2023-09-12T13:21:24.847Z,99956.22
2023-09-12T13:26:32.089Z,99952.94
2023-09-12T13:31:37.629Z,99946.78
2023-09-12T13:36:43.550Z,99930.91
2023-09-12T13:41:48.714Z,99934.03
2023-09-12T13:46:51.738Z,99932.63
2023-09-12T13:51:57.109Z,99932.59
2023-09-12T13:57:01.340Z,99926.13
2023-09-12T14:02:05.117Z,99915.16
2023-09-12T14:07:08.593Z,99909.34
2023-09-12T14:12:26.189Z,99905.00
2023-09-12T14:17:31.791Z,99912.13
2023-09-12T14:22:35.498Z,99908.06
2023-09-12T14:27:40.026Z,99915.69
2023-09-12T14:32:43.109Z,99913.44
2023-09-12T14:37:46.184Z,99918.44
2023-09-12T14:42:50.533Z,99911.72
2023-09-12T14:47:54.069Z,99910.34
2023-09-12T14:52:56.990Z,99902.84
2023-09-12T14:58:01.277Z,99913.56
2023-09-12T15:03:05.135Z,99910.69
2023-09-12T15:08:08.668Z,99913.06
2023-09-12T15:13:14.698Z,99904.63
2023-09-12T15:18:17.594Z,99904.47
2023-09-12T15:23:23.942Z,99896.38
2023-09-12T15:28:28.118Z,99897.47
2023-09-12T15:33:31.019Z,99904.56
2023-09-12T15:38:33.938Z,99896.47
2023-09-12T15:43:38.200Z,99901.94
2023-09-12T15:48:41.221Z,99898.91
2023-09-12T15:53:44.330Z,99909.03
2023-09-12T15:58:49.514Z,99902.75
2023-09-12T16:03:52.567Z,99899.78
2023-09-12T16:08:55.517Z,99893.63
2023-09-12T16:13:59.668Z,99885.44
2023-09-12T16:19:03.375Z,99886.03
2023-09-12T16:24:06.623Z,99879.97
2023-09-12T16:29:11.002Z,99883.09
2023-09-12T16:34:14.059Z,99880.38
2023-09-12T16:39:16.858Z,99873.13
2023-09-12T16:44:21.707Z,99875.13
2023-09-12T16:49:24.635Z,99862.47
2023-09-12T16:54:27.501Z,99868.38
2023-09-12T16:59:31.661Z,99859.75
2023-09-12T17:04:34.705Z,99861.13
2023-09-12T17:09:37.636Z,99866.22
2023-09-12T17:14:41.995Z,99864.22
2023-09-12T17:19:45.477Z,99862.69
2023-09-12T17:24:49.500Z,99867.78
2023-09-12T17:29:53.776Z,99859.34
2023-09-12T17:35:00.466Z,99849.00
2023-09-12T17:40:04.339Z,99859.91
2023-09-12T17:45:09.917Z,99862.44
2023-09-12T17:50:12.861Z,99856.47
2023-09-12T17:55:17.908Z,99860.56
2023-09-12T18:00:27.929Z,99865.50
2023-09-12T18:05:31.906Z,99874.97
2023-09-12T18:10:34.743Z,99871.59
2023-09-12T18:15:44.040Z,99874.09
2023-09-12T18:20:46.950Z,99888.00
2023-09-12T18:25:54.665Z,99894.78
2023-09-12T18:30:58.941Z,99895.94
2023-09-12T18:36:01.976Z,99896.31
2023-09-12T18:41:06.058Z,99895.28
2023-09-12T18:46:11.657Z,99889.03
2023-09-12T18:51:14.520Z,99897.28
2023-09-12T18:56:17.434Z,99896.63
2023-09-12T19:01:21.996Z,99891.56
2023-09-12T19:06:24.869Z,99904.94
2023-09-12T19:11:28.623Z,99911.00
2023-09-12T19:16:32.834Z,99910.66
2023-09-12T19:21:36.595Z,99896.09
2023-09-12T19:26:39.548Z,99899.97
2023-09-12T19:31:46.243Z,99904.53
2023-09-12T19:36:49.252Z,99902.03
2023-09-12T19:41:52.089Z,99905.06
2023-09-12T19:46:56.530Z,99918.19
2023-09-12T19:51:59.542Z,99933.75
2023-09-12T19:57:02.605Z,99933.38
2023-09-12T20:02:08.087Z,99925.47
2023-09-12T20:07:11.019Z,99928.13
2023-09-12T20:12:13.876Z,99926.56
2023-09-12T20:17:18.017Z,99914.41
2023-09-12T20:22:20.841Z,99918.13
2023-09-12T20:27:23.713Z,99909.84
2023-09-12T20:32:28.026Z,99900.53
2023-09-12T20:37:30.858Z,99894.94
2023-09-12T20:42:33.916Z,99896.78
2023-09-12T20:47:39.817Z,99894.78
2023-09-12T20:52:43.188Z,99883.59
2023-09-12T20:57:46.015Z,99882.41
2023-09-12T21:02:50.439Z,99875.97
2023-09-12T21:07:53.412Z,99887.66
2023-09-12T21:12:56.293Z,99891.03
2023-09-12T21:18:00.943Z,99888.81
2023-09-12T21:23:04.653Z,99891.53
2023-09-12T21:28:07.696Z,99894.25
2023-09-12T21:33:12.048Z,99899.31
2023-09-12T21:38:14.897Z,99901.66
2023-09-12T21:43:17.713Z,99904.88
2023-09-12T21:48:21.964Z,99904.34
2023-09-12T21:53:24.796Z,99903.19
2023-09-12T21:58:27.647Z,99891.72
2023-09-12T22:03:32.064Z,99880.88
2023-09-12T22:08:34.846Z,99878.69
2023-09-12T22:13:37.627Z,99880.38
2023-09-12T22:18:41.897Z,99869.53
2023-09-12T22:23:45.099Z,99853.28
2023-09-12T22:28:48.162Z,99841.44
2023-09-12T22:33:52.719Z,99831.47
2023-09-12T22:38:55.527Z,99817.59
2023-09-12T22:43:59.077Z,99821.00
2023-09-12T22:49:03.220Z,99836.38
2023-09-12T22:54:06.251Z,99826.91
2023-09-12T22:59:09.258Z,99823.34
2023-09-12T23:04:13.625Z,99813.34
2023-09-12T23:09:16.429Z,99831.63
2023-09-12T23:14:19.240Z,99842.13
2023-09-12T23:19:23.950Z,99856.84
2023-09-12T23:24:27.155Z,99852.63
2023-09-12T23:29:29.904Z,99840.75
2023-09-12T23:34:34.131Z,99848.00
2023-09-12T23:39:37.050Z,99841.56
2023-09-12T23:44:41.045Z,99837.66
2023-09-12T23:49:48.143Z,99831.06
2023-09-12T23:54:50.937Z,99896.97
2023-09-12T23:59:54.839Z,100054.31
